sensor_id;sensor_type;location;lat;lon;timestamp;pressure;altitude;pressure_sealevel;temperature;humidity
27980;BME280;15315;50.836;4.430;2023-04-07T00:03:10;101020.50;;;12.55;100.00
27980;BME280;15315;50.836;4.430;2023-04-07T00:13:10;101016.22;;;12.64;100.00
27980;BME280;15315;50.836;4.430;2023-04-07T00:23:10;101019.06;;;12.62;100.00
27980;BME280;15315;50.836;4.430;2023-04-07T00:33:11;101017.44;;;11.98;100.00
27980;BME280;15315;50.836;4.430;2023-04-07T00:43:11;101015.63;;;12.60;100.00
27980;BME280;15315;50.836;4.430;2023-04-07T00:53:11;101010.94;;;12.62;100.00
27980;BME280;15315;50.836;4.430;2023-04-07T01:03:17;101023.56;;;12.74;100.00
27980;BME280;15315;50.836;4.430;2023-04-07T01:13:25;101008.13;;;12.87;100.00
27980;BME280;15315;50.836;4.430;2023-04-07T01:23:39;101006.00;;;12.80;100.00
27980;BME280;15315;50.836;4.430;2023-04-07T01:33:45;101010.81;;;12.64;100.00
27980;BME280;15315;50.836;4.430;2023-04-07T01:43:47;101017.78;;;12.79;100.00
27980;BME280;15315;50.836;4.430;2023-04-07T01:53:48;101019.16;;;12.48;100.00
27980;BME280;15315;50.836;4.430;2023-04-07T02:03:59;101020.50;;;12.79;100.00
27980;BME280;15315;50.836;4.430;2023-04-07T02:14:04;101019.59;;;11.93;100.00
27980;BME280;15315;50.836;4.430;2023-04-07T02:24:06;101025.13;;;11.92;100.00
27980;BME280;15315;50.836;4.430;2023-04-07T02:34:07;101025.13;;;12.53;100.00
27980;BME280;15315;50.836;4.430;2023-04-07T02:44:07;101023.28;;;11.67;100.00
27980;BME280;15315;50.836;4.430;2023-04-07T02:54:08;101031.63;;;11.89;100.00
27980;BME280;15315;50.836;4.430;2023-04-07T03:04:08;101038.09;;;12.12;100.00
27980;BME280;15315;50.836;4.430;2023-04-07T03:14:09;101032.31;;;12.78;100.00
27980;BME280;15315;50.836;4.430;2023-04-07T03:24:09;101046.66;;;12.91;100.00
27980;BME280;15315;50.836;4.430;2023-04-07T03:34:10;101038.34;;;12.58;100.00
27980;BME280;15315;50.836;4.430;2023-04-07T03:44:10;101047.19;;;12.96;100.00
27980;BME280;15315;50.836;4.430;2023-04-07T03:54:10;101047.28;;;12.71;100.00
27980;BME280;15315;50.836;4.430;2023-04-07T04:04:11;101052.19;;;12.66;100.00
27980;BME280;15315;50.836;4.430;2023-04-07T04:14:11;101052.19;;;12.28;100.00
27980;BME280;15315;50.836;4.430;2023-04-07T04:24:12;101056.13;;;11.99;100.00
27980;BME280;15315;50.836;4.430;2023-04-07T04:34:12;101066.44;;;12.91;100.00
27980;BME280;15315;50.836;4.430;2023-04-07T04:44:13;101082.81;;;12.90;100.00
27980;BME280;15315;50.836;4.430;2023-04-07T04:54:13;101086.03;;;12.95;100.00
27980;BME280;15315;50.836;4.430;2023-04-07T05:04:13;101081.06;;;12.65;100.00
27980;BME280;15315;50.836;4.430;2023-04-07T05:14:14;101080.56;;;12.22;100.00
27980;BME280;15315;50.836;4.430;2023-04-07T05:24:14;101090.78;;;11.28;100.00
27980;BME280;15315;50.836;4.430;2023-04-07T05:34:15;101101.63;;;11.92;100.00
27980;BME280;15315;50.836;4.430;2023-04-07T05:44:15;101111.06;;;12.12;100.00
27980;BME280;15315;50.836;4.430;2023-04-07T05:54:16;101130.84;;;12.38;100.00
27980;BME280;15315;50.836;4.430;2023-04-07T06:04:16;101129.28;;;11.83;100.00
27980;BME280;15315;50.836;4.430;2023-04-07T06:14:17;101135.34;;;13.11;100.00
27980;BME280;15315;50.836;4.430;2023-04-07T06:24:17;101138.72;;;12.66;100.00
27980;BME280;15315;50.836;4.430;2023-04-07T06:34:17;101154.94;;;12.78;100.00
27980;BME280;15315;50.836;4.430;2023-04-07T06:44:18;101163.28;;;12.25;100.00
27980;BME280;15315;50.836;4.430;2023-04-07T06:54:18;101170.94;;;12.81;100.00
27980;BME280;15315;50.836;4.430;2023-04-07T07:04:19;101187.25;;;11.65;100.00
27980;BME280;15315;50.836;4.430;2023-04-07T07:14:19;101188.19;;;12.55;100.00
27980;BME280;15315;50.836;4.430;2023-04-07T07:24:19;101204.13;;;13.32;100.00
27980;BME280;15315;50.836;4.430;2023-04-07T07:34:20;101200.84;;;13.16;100.00
27980;BME280;15315;50.836;4.430;2023-04-07T07:44:20;101239.03;;;13.73;100.00
27980;BME280;15315;50.836;4.430;2023-04-07T07:54:21;101233.19;;;13.67;100.00
27980;BME280;15315;50.836;4.430;2023-04-07T08:04:22;101242.88;;;13.82;100.00
27980;BME280;15315;50.836;4.430;2023-04-07T08:14:23;101266.06;;;13.49;100.00
27980;BME280;15315;50.836;4.430;2023-04-07T08:24:23;101261.75;;;13.47;100.00
27980;BME280;15315;50.836;4.430;2023-04-07T08:34:23;101279.50;;;13.51;100.00
27980;BME280;15315;50.836;4.430;2023-04-07T08:44:24;101285.13;;;13.48;100.00
27980;BME280;15315;50.836;4.430;2023-04-07T08:54:27;101290.22;;;13.89;100.00
27980;BME280;15315;50.836;4.430;2023-04-07T09:04:27;101290.31;;;13.64;100.00
27980;BME280;15315;50.836;4.430;2023-04-07T09:14:28;101293.75;;;14.60;99.64
27980;BME280;15315;50.836;4.430;2023-04-07T09:24:29;101289.44;;;14.69;95.14
27980;BME280;15315;50.836;4.430;2023-04-07T09:34:38;101287.19;;;14.28;91.32
27980;BME280;15315;50.836;4.430;2023-04-07T09:44:39;101280.13;;;15.51;87.44
27980;BME280;15315;50.836;4.430;2023-04-07T09:54:43;101271.97;;;15.93;82.39
27980;BME280;15315;50.836;4.430;2023-04-07T10:04:43;101278.63;;;15.02;84.17
27980;BME280;15315;50.836;4.430;2023-04-07T10:14:44;101280.88;;;15.08;81.68
27980;BME280;15315;50.836;4.430;2023-04-07T10:24:58;101291.22;;;14.46;80.83
27980;BME280;15315;50.836;4.430;2023-04-07T10:34:59;101268.75;;;15.34;79.16
27980;BME280;15315;50.836;4.430;2023-04-07T10:45:00;101299.72;;;14.88;81.62
27980;BME280;15315;50.836;4.430;2023-04-07T10:55:41;101306.97;;;13.83;94.73
27980;BME280;15315;50.836;4.430;2023-04-07T11:05:41;101304.00;;;14.09;97.33
27980;BME280;15315;50.836;4.430;2023-04-07T11:15:42;101302.34;;;15.67;89.15
27980;BME280;15315;50.836;4.430;2023-04-07T11:25:43;101308.53;;;15.35;85.71
27980;BME280;15315;50.836;4.430;2023-04-07T11:35:52;101310.88;;;15.51;81.69
27980;BME280;15315;50.836;4.430;2023-04-07T11:46:09;101323.22;;;14.54;90.05
27980;BME280;15315;50.836;4.430;2023-04-07T11:56:12;101329.50;;;14.54;85.71
27980;BME280;15315;50.836;4.430;2023-04-07T12:06:25;101329.66;;;15.21;83.20
27980;BME280;15315;50.836;4.430;2023-04-07T12:16:28;101326.97;;;17.13;76.34
27980;BME280;15315;50.836;4.430;2023-04-07T12:26:28;101378.13;;;12.98;100.00
27980;BME280;15315;50.836;4.430;2023-04-07T12:36:28;101366.63;;;12.82;100.00
27980;BME280;15315;50.836;4.430;2023-04-07T12:46:29;101374.81;;;12.02;100.00
27980;BME280;15315;50.836;4.430;2023-04-07T12:56:29;101378.00;;;13.12;100.00
27980;BME280;15315;50.836;4.430;2023-04-07T13:06:30;101377.78;;;13.66;100.00
27980;BME280;15315;50.836;4.430;2023-04-07T13:16:31;101381.91;;;13.21;100.00
27980;BME280;15315;50.836;4.430;2023-04-07T13:26:31;101402.81;;;11.44;100.00
27980;BME280;15315;50.836;4.430;2023-04-07T13:36:32;101401.84;;;11.31;100.00
27980;BME280;15315;50.836;4.430;2023-04-07T13:46:32;101389.88;;;12.72;100.00
27980;BME280;15315;50.836;4.430;2023-04-07T13:56:33;101390.91;;;12.03;100.00
27980;BME280;15315;50.836;4.430;2023-04-07T14:06:34;101390.16;;;11.87;100.00
27980;BME280;15315;50.836;4.430;2023-04-07T14:16:36;101399.03;;;12.57;100.00
27980;BME280;15315;50.836;4.430;2023-04-07T14:26:36;101411.25;;;13.02;100.00
27980;BME280;15315;50.836;4.430;2023-04-07T14:36:37;101389.47;;;12.90;100.00
27980;BME280;15315;50.836;4.430;2023-04-07T14:46:37;101405.38;;;13.96;100.00
27980;BME280;15315;50.836;4.430;2023-04-07T14:56:37;101403.53;;;14.20;100.00
27980;BME280;15315;50.836;4.430;2023-04-07T15:06:41;101412.50;;;13.97;94.24
27980;BME280;15315;50.836;4.430;2023-04-07T15:16:42;101413.75;;;13.80;92.91
27980;BME280;15315;50.836;4.430;2023-04-07T15:26:43;101426.06;;;14.33;92.59
27980;BME280;15315;50.836;4.430;2023-04-07T15:36:43;101431.94;;;13.15;95.80
27980;BME280;15315;50.836;4.430;2023-04-07T15:46:44;101428.59;;;13.87;89.70
27980;BME280;15315;50.836;4.430;2023-04-07T15:56:44;101433.28;;;14.69;82.56
27980;BME280;15315;50.836;4.430;2023-04-07T16:06:44;101451.69;;;14.29;81.82
27980;BME280;15315;50.836;4.430;2023-04-07T16:16:45;101456.56;;;14.84;79.55
27980;BME280;15315;50.836;4.430;2023-04-07T16:26:45;101459.41;;;14.59;75.99
27980;BME280;15315;50.836;4.430;2023-04-07T16:36:49;101474.41;;;14.03;77.04
27980;BME280;15315;50.836;4.430;2023-04-07T16:46:51;101485.78;;;12.80;82.28
27980;BME280;15315;50.836;4.430;2023-04-07T16:56:52;101495.25;;;13.00;81.69
27980;BME280;15315;50.836;4.430;2023-04-07T17:06:52;101496.50;;;12.14;85.50
27980;BME280;15315;50.836;4.430;2023-04-07T17:16:52;101508.50;;;12.37;84.70
27980;BME280;15315;50.836;4.430;2023-04-07T17:26:53;101520.38;;;13.02;82.71
27980;BME280;15315;50.836;4.430;2023-04-07T17:36:53;101537.56;;;12.88;82.63
27980;BME280;15315;50.836;4.430;2023-04-07T17:46:53;101557.28;;;13.69;77.32
27980;BME280;15315;50.836;4.430;2023-04-07T17:56:54;101569.69;;;13.20;80.75
27980;BME280;15315;50.836;4.430;2023-04-07T18:06:55;101574.09;;;13.35;80.64
27980;BME280;15315;50.836;4.430;2023-04-07T18:16:56;101581.06;;;13.12;81.63
27980;BME280;15315;50.836;4.430;2023-04-07T18:26:57;101588.19;;;12.60;83.37
27980;BME280;15315;50.836;4.430;2023-04-07T18:36:57;101597.63;;;12.81;82.36
27980;BME280;15315;50.836;4.430;2023-04-07T18:46:58;101607.88;;;13.56;78.52
27980;BME280;15315;50.836;4.430;2023-04-07T18:56:58;101616.53;;;13.61;76.19
27980;BME280;15315;50.836;4.430;2023-04-07T19:06:58;101632.84;;;13.47;73.86
27980;BME280;15315;50.836;4.430;2023-04-07T19:16:59;101639.28;;;13.05;76.73
27980;BME280;15315;50.836;4.430;2023-04-07T19:27:00;101639.66;;;13.40;75.59
27980;BME280;15315;50.836;4.430;2023-04-07T19:37:01;101644.16;;;13.27;77.10
27980;BME280;15315;50.836;4.430;2023-04-07T19:47:01;101649.28;;;12.48;82.92
27980;BME280;15315;50.836;4.430;2023-04-07T19:57:01;101664.97;;;12.71;84.63
27980;BME280;15315;50.836;4.430;2023-04-07T20:07:02;101675.81;;;12.57;88.74
27980;BME280;15315;50.836;4.430;2023-04-07T20:17:02;101673.56;;;13.45;83.76
27980;BME280;15315;50.836;4.430;2023-04-07T20:27:03;101680.50;;;13.37;82.97
27980;BME280;15315;50.836;4.430;2023-04-07T20:37:03;101692.94;;;13.53;81.55
27980;BME280;15315;50.836;4.430;2023-04-07T20:47:11;101687.50;;;13.13;83.14
27980;BME280;15315;50.836;4.430;2023-04-07T20:57:12;101688.69;;;13.35;82.09
27980;BME280;15315;50.836;4.430;2023-04-07T21:07:12;101698.09;;;13.30;83.48
27980;BME280;15315;50.836;4.430;2023-04-07T21:17:12;101701.28;;;13.36;83.38
27980;BME280;15315;50.836;4.430;2023-04-07T21:27:13;101695.25;;;13.59;82.70
27980;BME280;15315;50.836;4.430;2023-04-07T21:37:13;101705.81;;;13.36;85.38
27980;BME280;15315;50.836;4.430;2023-04-07T21:47:14;101710.66;;;12.48;92.44
27980;BME280;15315;50.836;4.430;2023-04-07T21:57:14;101710.97;;;12.71;91.34
27980;BME280;15315;50.836;4.430;2023-04-07T22:07:15;101706.63;;;12.83;92.30
27980;BME280;15315;50.836;4.430;2023-04-07T22:17:15;101718.47;;;13.09;90.18
27980;BME280;15315;50.836;4.430;2023-04-07T22:27:16;101715.69;;;12.82;93.27
27980;BME280;15315;50.836;4.430;2023-04-07T22:37:16;101716.06;;;12.48;97.83
27980;BME280;15315;50.836;4.430;2023-04-07T22:47:17;101713.56;;;12.87;96.02
27980;BME280;15315;50.836;4.430;2023-04-07T22:57:17;101717.53;;;13.36;93.00
27980;BME280;15315;50.836;4.430;2023-04-07T23:07:17;101727.00;;;13.57;89.94
27980;BME280;15315;50.836;4.430;2023-04-07T23:17:18;101729.31;;;13.09;92.64
27980;BME280;15315;50.836;4.430;2023-04-07T23:27:18;101730.09;;;12.82;95.38
27980;BME280;15315;50.836;4.430;2023-04-07T23:37:18;101733.53;;;13.27;92.89
27980;BME280;15315;50.836;4.430;2023-04-07T23:47:19;101749.06;;;12.38;98.28
27980;BME280;15315;50.836;4.430;2023-04-07T23:57:20;101740.53;;;13.03;96.48
